This is the latest recevied weather packets stored in our database for station/object kj4yre. If no packets are shown the sender has not sent any weather packets the latest 10 day(s).
| Time | Temp. | Humidity | Pressure | Rain* | Wind** | Luminosity | Snow |
|---|---|---|---|---|---|---|---|
| 1777558936 | 16.67° C | 79% | 1010.6 hPa | 0 mm | - | - | - |
| 1777553237 | 15.56° C | 88% | 1010 hPa | 0 mm | - | - | - |
| 1777552335 | 15.56° C | 91% | 1009.9 hPa | 0 mm | - | - | - |
| 1777551434 | 15° C | 95% | 1009.9 hPa | 0 mm | - | - | - |
| 1777550836 | 15° C | 94% | 1010.2 hPa | 0 mm | - | - | - |
| 1777550537 | 15° C | 93% | 1010.2 hPa | 0 mm | - | - | - |
| 1777546937 | 14.44° C | 100% | 1008.2 hPa | 0 mm | - | - | - |
| 1777546337 | 14.44° C | 100% | 1007.8 hPa | 0 mm | - | - | - |
| 1777545138 | 14.44° C | 100% | 1007.3 hPa | 0 mm | - | - | - |
| 1777544835 | 14.44° C | 100% | 1007.3 hPa | 0 mm | - | - | - |
| 1777544235 | 15° C | 100% | 1007.4 hPa | 0 mm | - | - | - |
| 1777543936 | 15° C | 100% | 1007.4 hPa | 0 mm | - | - | - |
| 1777543336 | 15° C | 100% | 1007.5 hPa | 0 mm | - | - | - |
| 1777541235 | 15° C | 100% | 1007.4 hPa | 0 mm | - | - | - |
| 1777540635 | 15° C | 100% | 1007.4 hPa | 0 mm | - | - | - |
| 1777540336 | 15° C | 100% | 1007.3 hPa | 0 mm | - | - | - |
| 1777539435 | 13.89° C | 100% | 1007.2 hPa | 0 mm | - | - | - |
| 1777539138 | 13.89° C | 100% | 1007.2 hPa | 0 mm | - | - | - |
| 1777538536 | 13.33° C | 100% | 1007.1 hPa | 0 mm | - | - | - |
| 1777536136 | 14.44° C | 100% | 1007.1 hPa | 0 mm | - | - | - |
| 1777533135 | 14.44° C | 100% | 1007 hPa | 0 mm | - | - | - |
| 1777531937 | 14.44° C | 100% | 1006.8 hPa | 0 mm | - | - | - |
| 1777531034 | 15° C | 100% | 1007 hPa | 0 mm | - | - | - |
| 1777530137 | 15° C | 100% | 1007 hPa | 0 mm | - | - | - |
| 1777528636 | 16.11° C | 97% | 1007.7 hPa | 0 mm | - | - | - |
* Rain latest hour (hover to see other rain measurements)
** Current wind speed in m/s (hover to see current wind gust speed)